Time;durP1;ratioP1;P1;durP2;ratioP2;P2;SDS_P1;SDS_P2;PMS_P1;PMS_P2;Temp;Humidity;BMP_temperature;BMP_pressure;BME280_temperature;BME280_humidity;BME280_pressure;Samples;Min_cycle;Max_cycle;Signal;HPM_P1;HPM_P2
2022/07/27 00:01:42;;;;;;;19.52;18.25;;;14.80;99.90;;;;;;5052610;28;20514;-72
2022/07/27 00:04:17;;;;;;;19.85;18.20;;;14.80;99.90;;;;;;5055435;28;20036;-71
2022/07/27 00:06:44;;;;;;;20.15;18.60;;;14.70;99.90;;;;;;5052617;28;20086;-73
2022/07/27 00:09:11;;;;;;;20.08;18.58;;;14.60;99.90;;;;;;5054752;28;20098;-75
2022/07/27 00:11:38;;;;;;;20.35;18.38;;;14.60;99.90;;;;;;5052810;28;20040;-74
2022/07/27 00:14:05;;;;;;;19.85;18.42;;;14.50;99.90;;;;;;5052313;28;20056;-75
2022/07/27 00:16:32;;;;;;;19.77;18.42;;;14.60;99.90;;;;;;5053790;28;20622;-73
2022/07/27 00:18:59;;;;;;;19.80;18.40;;;14.60;99.90;;;;;;5070143;28;20139;-72
2022/07/27 00:21:26;;;;;;;19.88;18.42;;;14.70;99.90;;;;;;5054066;28;20368;-73
2022/07/27 00:23:53;;;;;;;19.08;17.80;;;14.60;99.90;;;;;;5053858;28;20482;-72
2022/07/27 00:26:20;;;;;;;19.80;18.30;;;14.60;99.90;;;;;;5052004;28;20098;-72
2022/07/27 00:28:48;;;;;;;19.10;17.77;;;14.60;99.90;;;;;;5053659;28;20079;-72
2022/07/27 00:31:15;;;;;;;20.45;18.45;;;14.50;99.90;;;;;;5053523;28;20040;-75
2022/07/27 00:33:42;;;;;;;20.00;18.17;;;14.50;99.90;;;;;;5050259;28;20040;-73
2022/07/27 00:36:09;;;;;;;20.50;18.70;;;14.50;99.90;;;;;;5051162;28;20576;-72
2022/07/27 00:38:36;;;;;;;18.98;17.67;;;14.50;99.90;;;;;;5051249;28;20077;-73
2022/07/27 00:41:04;;;;;;;18.83;17.63;;;14.50;99.90;;;;;;5072034;28;20111;-72
2022/07/27 00:43:31;;;;;;;18.90;17.70;;;14.50;99.90;;;;;;5059830;28;20076;-72
2022/07/27 00:45:58;;;;;;;18.92;17.60;;;14.40;99.90;;;;;;5051141;28;20052;-75
2022/07/27 00:48:30;;;;;;;19.38;18.13;;;14.40;99.90;;;;;;5054245;28;20518;-74
2022/07/27 00:50:58;;;;;;;19.80;18.27;;;14.40;99.90;;;;;;5041183;22;20055;-73
2022/07/27 00:53:25;;;;;;;20.13;18.23;;;14.30;99.90;;;;;;5024304;28;20063;-73
2022/07/27 00:55:52;;;;;;;19.70;18.25;;;14.30;99.90;;;;;;5025699;28;20044;-73
2022/07/27 00:58:19;;;;;;;19.35;17.95;;;14.30;99.90;;;;;;5014945;28;20524;-74
2022/07/27 01:00:46;;;;;;;20.48;18.60;;;14.30;99.90;;;;;;5025827;28;20048;-73
2022/07/27 01:03:13;;;;;;;19.90;18.50;;;14.40;99.90;;;;;;5024761;28;20061;-73
2022/07/27 01:05:42;;;;;;;20.10;18.15;;;14.50;99.90;;;;;;5005031;28;20593;-74
2022/07/27 01:08:12;;;;;;;19.80;18.40;;;14.40;99.90;;;;;;5032274;28;20048;-73
2022/07/27 01:10:40;;;;;;;20.25;18.40;;;14.50;99.90;;;;;;5016540;28;20124;-74
2022/07/27 01:13:08;;;;;;;20.40;18.77;;;14.50;99.90;;;;;;5027075;28;20461;-73
2022/07/27 01:15:39;;;;;;;21.38;19.58;;;14.50;99.90;;;;;;5013700;28;20052;-73
2022/07/27 01:18:11;;;;;;;20.98;19.20;;;14.50;99.90;;;;;;5031129;28;20041;-74
2022/07/27 01:20:40;;;;;;;20.05;18.55;;;14.40;99.90;;;;;;5011345;28;20195;-74
2022/07/27 01:23:08;;;;;;;20.73;19.05;;;14.40;99.90;;;;;;5017873;28;20106;-73
2022/07/27 01:25:35;;;;;;;19.70;18.10;;;14.40;99.90;;;;;;5031541;28;20041;-73
2022/07/27 01:28:02;;;;;;;19.58;18.30;;;14.50;99.90;;;;;;5018821;28;20063;-74
2022/07/27 01:30:29;;;;;;;20.20;18.58;;;14.50;99.90;;;;;;5016594;28;20049;-73
2022/07/27 01:33:04;;;;;;;20.23;18.75;;;14.50;99.90;;;;;;5016056;28;20143;-73
2022/07/27 01:35:31;;;;;;;20.33;18.90;;;14.50;99.90;;;;;;5025477;28;20044;-73
2022/07/27 01:37:58;;;;;;;20.30;18.52;;;14.50;99.90;;;;;;5027707;28;20107;-74
2022/07/27 01:40:25;;;;;;;20.83;19.13;;;14.50;99.90;;;;;;5023635;28;20130;-73
2022/07/27 01:42:52;;;;;;;20.40;19.00;;;14.50;99.90;;;;;;5030629;28;20075;-73
2022/07/27 01:45:19;;;;;;;19.67;18.35;;;14.40;99.90;;;;;;5028874;28;20053;-74
2022/07/27 01:47:46;;;;;;;19.65;18.35;;;14.40;99.90;;;;;;5025583;28;20087;-73
2022/07/27 01:50:13;;;;;;;19.70;18.35;;;14.30;99.90;;;;;;5017088;28;20048;-73
2022/07/27 01:52:39;;;;;;;20.10;18.48;;;14.40;99.90;;;;;;5027305;28;20536;-73
2022/07/27 01:55:08;;;;;;;19.17;17.85;;;14.40;99.90;;;;;;5029111;28;20329;-73
2022/07/27 01:57:36;;;;;;;19.88;18.30;;;14.40;99.90;;;;;;5026748;28;20108;-73
2022/07/27 02:00:06;;;;;;;18.90;17.35;;;14.30;99.90;;;;;;5016679;28;20044;-74
2022/07/27 02:02:38;;;;;;;17.80;16.70;;;14.40;99.90;;;;;;5016525;28;20278;-73
2022/07/27 02:05:06;;;;;;;17.58;16.40;;;14.40;99.90;;;;;;5032302;28;20067;-72
2022/07/27 02:07:33;;;;;;;17.17;15.90;;;14.30;99.90;;;;;;5032079;28;20107;-73
2022/07/27 02:10:00;;;;;;;17.38;16.02;;;14.30;99.90;;;;;;5025624;28;20045;-73
2022/07/27 02:12:36;;;;;;;16.88;15.60;;;14.30;99.90;;;;;;5018357;28;20041;-73
2022/07/27 02:15:12;;;;;;;16.45;15.18;;;14.30;99.90;;;;;;5029523;28;20138;-73
2022/07/27 02:17:42;;;;;;;17.20;15.60;;;14.30;99.90;;;;;;5034482;28;20059;-74
2022/07/27 02:20:13;;;;;;;16.85;15.57;;;14.30;99.90;;;;;;5035192;28;20121;-73
2022/07/27 02:22:40;;;;;;;17.25;15.65;;;14.20;99.90;;;;;;5031722;28;20045;-74
2022/07/27 02:25:08;;;;;;;17.27;15.73;;;14.10;99.90;;;;;;5028862;28;20044;-73
2022/07/27 02:27:35;;;;;;;17.17;15.75;;;14.20;99.90;;;;;;5021028;28;20049;-73
2022/07/27 02:30:04;;;;;;;16.67;15.40;;;14.20;99.90;;;;;;5020719;28;20494;-73
2022/07/27 02:32:31;;;;;;;17.92;16.40;;;14.10;99.90;;;;;;5013034;28;20103;-73
2022/07/27 02:34:58;;;;;;;16.98;15.55;;;14.10;99.90;;;;;;5032917;28;20079;-74
2022/07/27 02:37:25;;;;;;;17.38;16.02;;;14.00;99.90;;;;;;5030289;28;20117;-74
2022/07/27 02:39:52;;;;;;;17.05;15.60;;;14.00;99.90;;;;;;5018177;28;20040;-73
2022/07/27 02:42:19;;;;;;;18.90;17.02;;;14.00;99.90;;;;;;5028968;28;20108;-74
2022/07/27 02:44:46;;;;;;;18.25;16.50;;;13.90;99.90;;;;;;5027828;28;20060;-73
2022/07/27 02:47:12;;;;;;;16.83;15.63;;;13.70;99.90;;;;;;5033612;28;20102;-73
2022/07/27 02:49:39;;;;;;;16.70;15.63;;;13.80;99.90;;;;;;5016885;28;20053;-73
2022/07/27 02:52:06;;;;;;;16.50;15.60;;;13.80;99.90;;;;;;5029088;28;20033;-73
2022/07/27 02:54:33;;;;;;;17.95;16.58;;;13.80;99.90;;;;;;5016563;28;20187;-73
2022/07/27 02:57:03;;;;;;;18.00;16.55;;;13.80;99.90;;;;;;5029976;28;20049;-73
2022/07/27 02:59:30;;;;;;;17.38;16.17;;;13.70;99.90;;;;;;5025072;28;20503;-74
2022/07/27 03:01:57;;;;;;;17.42;16.02;;;13.70;99.90;;;;;;5019003;28;20045;-73
2022/07/27 03:04:24;;;;;;;17.05;15.82;;;13.70;99.90;;;;;;5032108;28;20053;-74
2022/07/27 03:06:51;;;;;;;17.15;15.75;;;13.70;99.90;;;;;;5029907;28;20128;-74
2022/07/27 03:09:18;;;;;;;16.83;15.63;;;13.70;99.90;;;;;;5026453;28;20045;-73
2022/07/27 03:11:58;;;;;;;16.33;14.90;;;13.60;99.90;;;;;;5009770;28;20149;-74
2022/07/27 03:14:25;;;;;;;16.42;15.25;;;13.60;99.90;;;;;;5024316;28;20072;-74
2022/07/27 03:16:52;;;;;;;17.95;16.23;;;13.60;99.90;;;;;;5018831;28;20048;-74
2022/07/27 03:19:19;;;;;;;17.10;15.73;;;13.60;99.90;;;;;;5032418;28;20045;-74
2022/07/27 03:21:46;;;;;;;17.30;15.68;;;13.50;99.90;;;;;;5016522;28;20045;-74
2022/07/27 03:24:13;;;;;;;17.58;16.02;;;13.50;99.90;;;;;;5033512;28;20040;-73
2022/07/27 03:26:39;;;;;;;17.30;15.80;;;13.50;99.90;;;;;;5025772;28;20101;-73
2022/07/27 03:29:06;;;;;;;15.88;14.90;;;13.40;99.90;;;;;;5036103;28;20044;-74
2022/07/27 03:31:33;;;;;;;16.73;15.38;;;13.40;99.90;;;;;;5033332;28;20048;-73
2022/07/27 03:34:00;;;;;;;17.90;16.05;;;13.40;99.90;;;;;;5020122;28;20061;-74
2022/07/27 03:36:28;;;;;;;17.92;16.23;;;13.30;99.90;;;;;;5026683;28;20049;-73
2022/07/27 03:38:56;;;;;;;16.63;15.30;;;13.10;99.90;;;;;;5029290;28;20451;-72
2022/07/27 03:41:24;;;;;;;16.10;14.90;;;13.20;99.90;;;;;;5016405;28;20306;-73
2022/07/27 03:43:51;;;;;;;16.77;15.40;;;13.00;99.90;;;;;;5033787;28;20067;-72
2022/07/27 03:46:18;;;;;;;15.63;14.52;;;13.00;99.90;;;;;;5008409;28;20040;-73
2022/07/27 03:48:45;;;;;;;15.68;14.40;;;12.90;99.90;;;;;;5025563;28;20048;-73
2022/07/27 03:51:12;;;;;;;16.08;14.70;;;13.00;99.90;;;;;;5011778;28;20095;-71
2022/07/27 03:53:39;;;;;;;15.65;14.27;;;12.90;99.90;;;;;;5018631;28;20052;-72
2022/07/27 03:56:06;;;;;;;14.82;13.57;;;12.70;99.90;;;;;;5017681;28;20049;-72
2022/07/27 03:58:32;;;;;;;15.60;14.27;;;12.90;99.90;;;;;;5022308;28;20138;-72
2022/07/27 04:00:59;;;;;;;15.98;14.85;;;13.00;99.90;;;;;;5030684;28;20044;-72
2022/07/27 04:03:26;;;;;;;15.55;14.48;;;13.20;99.90;;;;;;5027830;28;20045;-72
2022/07/27 04:05:53;;;;;;;16.48;14.80;;;13.20;99.90;;;;;;5016060;28;20403;-72
2022/07/27 04:08:20;;;;;;;14.85;13.75;;;13.30;99.90;;;;;;5018936;28;20095;-72
2022/07/27 04:10:47;;;;;;;14.40;13.00;;;13.20;99.90;;;;;;5013106;28;20036;-72
2022/07/27 04:13:14;;;;;;;15.10;13.60;;;13.20;99.90;;;;;;5022189;28;20180;-72
2022/07/27 04:15:43;;;;;;;15.48;13.95;;;13.10;99.90;;;;;;5030636;28;20045;-71
2022/07/27 04:18:10;;;;;;;16.60;15.48;;;13.00;99.90;;;;;;5024141;28;20308;-72
2022/07/27 04:20:36;;;;;;;16.88;15.48;;;13.00;99.90;;;;;;5010507;28;20800;-72
2022/07/27 04:23:03;;;;;;;16.85;15.43;;;13.20;99.90;;;;;;5033507;28;20036;-71
2022/07/27 04:25:30;;;;;;;15.93;14.93;;;13.10;99.90;;;;;;5029023;28;20048;-72
2022/07/27 04:27:57;;;;;;;17.15;15.70;;;13.20;99.90;;;;;;5020914;28;20052;-72
2022/07/27 04:30:24;;;;;;;16.23;15.02;;;13.20;99.90;;;;;;5015651;28;20051;-72
2022/07/27 04:32:51;;;;;;;16.70;15.13;;;13.20;99.90;;;;;;5031132;28;20040;-72
2022/07/27 04:35:18;;;;;;;16.40;14.90;;;13.20;99.90;;;;;;5019138;28;20037;-72
2022/07/27 04:37:52;;;;;;;16.10;15.02;;;13.20;99.90;;;;;;5021221;28;20201;-72
2022/07/27 04:40:26;;;;;;;17.75;16.30;;;13.10;99.90;;;;;;5026600;28;20939;-72
2022/07/27 04:42:52;;;;;;;16.65;15.23;;;13.10;99.90;;;;;;5021166;28;20437;-72
2022/07/27 04:45:19;;;;;;;16.75;15.25;;;13.10;99.90;;;;;;5014972;28;20040;-72
2022/07/27 04:47:46;;;;;;;16.00;15.00;;;13.20;99.90;;;;;;5015731;28;20044;-72
2022/07/27 04:50:13;;;;;;;16.60;15.30;;;13.30;99.90;;;;;;5026389;28;20332;-72
2022/07/27 04:52:39;;;;;;;17.60;15.55;;;13.20;99.90;;;;;;5015137;28;20049;-72
2022/07/27 04:55:06;;;;;;;17.02;15.98;;;13.30;99.90;;;;;;5017139;28;20044;-71
2022/07/27 04:57:33;;;;;;;17.42;15.88;;;13.40;99.90;;;;;;4998384;28;20037;-72
2022/07/27 05:00:00;;;;;;;17.20;15.75;;;13.40;99.90;;;;;;5003664;28;20418;-72
2022/07/27 05:02:28;;;;;;;17.10;15.77;;;13.40;99.90;;;;;;5017121;28;20052;-72
2022/07/27 05:04:55;;;;;;;17.73;16.20;;;13.40;99.90;;;;;;5024566;28;20468;-72
2022/07/27 05:07:21;;;;;;;17.83;16.58;;;13.40;99.90;;;;;;5024860;28;20429;-72
2022/07/27 05:09:48;;;;;;;19.05;16.25;;;13.40;99.90;;;;;;5027690;28;20055;-72
2022/07/27 05:12:15;;;;;;;18.48;16.83;;;13.60;99.90;;;;;;5019606;28;20048;-72
2022/07/27 05:14:42;;;;;;;16.95;15.65;;;13.70;99.90;;;;;;5021318;28;20355;-72
2022/07/27 05:17:09;;;;;;;17.38;15.95;;;13.80;99.90;;;;;;5029829;28;20373;-71
2022/07/27 05:19:36;;;;;;;18.20;16.70;;;13.70;99.90;;;;;;5018201;28;20087;-72
2022/07/27 05:22:07;;;;;;;17.00;15.60;;;13.80;99.90;;;;;;5026676;28;20048;-72
2022/07/27 05:24:34;;;;;;;17.30;15.75;;;13.90;99.90;;;;;;5020020;28;20041;-73
2022/07/27 05:27:02;;;;;;;16.50;15.18;;;13.80;99.90;;;;;;5002875;28;20036;-72
2022/07/27 05:29:28;;;;;;;16.52;15.10;;;13.80;99.90;;;;;;5026116;28;20057;-72
2022/07/27 05:31:55;;;;;;;17.25;15.90;;;13.60;99.90;;;;;;5031705;28;21500;-73
2022/07/27 05:34:22;;;;;;;17.38;15.85;;;13.80;99.90;;;;;;5019612;28;20048;-72
2022/07/27 05:36:49;;;;;;;17.25;16.13;;;13.90;99.90;;;;;;5011694;28;20165;-72
2022/07/27 05:39:15;;;;;;;18.25;16.75;;;14.00;99.90;;;;;;5012184;28;20548;-73
2022/07/27 05:41:43;;;;;;;17.85;16.65;;;14.10;99.90;;;;;;5013177;28;20033;-72
2022/07/27 05:44:09;;;;;;;17.88;16.65;;;14.10;99.90;;;;;;5015315;28;20048;-73
2022/07/27 05:46:36;;;;;;;17.80;16.48;;;14.00;99.90;;;;;;5019942;28;20490;-73
2022/07/27 05:49:03;;;;;;;17.85;16.45;;;14.10;99.90;;;;;;5036781;28;20564;-73
2022/07/27 05:51:30;;;;;;;18.42;16.90;;;14.10;99.90;;;;;;5028453;28;20080;-73
2022/07/27 05:53:58;;;;;;;18.17;16.90;;;14.00;99.90;;;;;;5023676;28;20472;-73
2022/07/27 05:56:25;;;;;;;18.75;17.45;;;14.10;99.90;;;;;;5022481;28;20254;-73
2022/07/27 05:58:52;;;;;;;18.13;16.63;;;14.20;99.90;;;;;;5018780;28;20054;-73
2022/07/27 06:01:19;;;;;;;18.27;17.13;;;14.20;99.90;;;;;;5016704;28;20040;-73
2022/07/27 06:03:46;;;;;;;17.83;16.27;;;14.20;99.90;;;;;;5036193;28;20129;-72
2022/07/27 06:09:00;;;;;;;17.98;16.63;;;14.30;99.90;;;;;;5024464;28;20377;-72
2022/07/27 06:11:27;;;;;;;17.80;16.60;;;14.40;99.90;;;;;;5016664;28;20050;-73
2022/07/27 06:13:54;;;;;;;17.55;16.27;;;14.50;99.90;;;;;;5035296;28;20136;-73
2022/07/27 06:16:22;;;;;;;19.48;16.77;;;14.70;99.90;;;;;;5032117;28;20070;-73
2022/07/27 06:18:49;;;;;;;18.67;17.42;;;14.90;99.90;;;;;;5028412;28;20106;-73
2022/07/27 06:21:16;;;;;;;18.70;17.23;;;15.10;99.90;;;;;;5022448;28;20447;-72
2022/07/27 06:23:43;;;;;;;18.80;17.05;;;15.20;99.90;;;;;;5024003;28;20393;-73
2022/07/27 06:26:10;;;;;;;18.55;17.25;;;15.20;99.90;;;;;;5025529;28;20250;-73
2022/07/27 06:28:36;;;;;;;18.60;17.30;;;15.20;99.90;;;;;;5025432;28;20648;-72
2022/07/27 06:31:03;;;;;;;18.42;17.23;;;15.50;99.90;;;;;;5024719;28;20052;-71
2022/07/27 06:33:33;;;;;;;20.10;18.55;;;15.70;99.90;;;;;;5023565;28;21372;-71
2022/07/27 06:36:01;;;;;;;17.90;16.90;;;15.70;99.90;;;;;;5026980;28;20083;-72
2022/07/27 06:38:28;;;;;;;17.95;16.75;;;15.90;99.90;;;;;;5012283;28;20059;-71
2022/07/27 06:40:55;;;;;;;18.50;17.40;;;16.00;99.90;;;;;;5022319;28;20100;-71
2022/07/27 06:43:25;;;;;;;18.35;17.08;;;15.90;99.90;;;;;;5017129;28;20052;-71
2022/07/27 06:45:53;;;;;;;18.65;17.35;;;16.00;99.90;;;;;;5027119;28;20044;-71
2022/07/27 06:48:20;;;;;;;19.55;18.17;;;16.50;99.90;;;;;;5023697;28;20041;-72
2022/07/27 06:50:48;;;;;;;19.67;18.33;;;17.00;99.90;;;;;;5049209;23;20052;-71
2022/07/27 06:53:15;;;;;;;20.55;19.10;;;17.10;99.90;;;;;;5053237;28;20134;-72
2022/07/27 06:55:47;;;;;;;20.58;19.05;;;16.80;99.90;;;;;;5052890;28;20682;-71
2022/07/27 06:58:14;;;;;;;19.55;18.30;;;16.50;99.90;;;;;;5054801;28;20044;-72
2022/07/27 07:00:41;;;;;;;19.52;18.02;;;16.00;99.90;;;;;;5053782;28;20044;-72
2022/07/27 07:03:08;;;;;;;20.27;18.58;;;15.90;99.90;;;;;;5055893;28;20510;-73
2022/07/27 07:05:42;;;;;;;20.38;18.75;;;15.80;99.90;;;;;;5063055;28;20197;-72
2022/07/27 07:08:10;;;;;;;21.00;19.20;;;15.50;99.90;;;;;;5056127;28;20047;-75
2022/07/27 07:10:39;;;;;;;20.60;18.85;;;15.50;99.90;;;;;;5050427;28;20037;-75
2022/07/27 07:13:06;;;;;;;19.67;18.23;;;15.50;99.90;;;;;;5050376;28;20088;-74
2022/07/27 07:15:35;;;;;;;20.00;18.50;;;16.00;99.90;;;;;;5052064;28;20509;-74
2022/07/27 07:18:03;;;;;;;20.90;19.38;;;16.50;99.90;;;;;;5053692;28;20539;-74
2022/07/27 07:20:30;;;;;;;20.38;18.98;;;17.10;99.90;;;;;;5052848;28;20071;-76
2022/07/27 07:22:57;;;;;;;21.58;19.88;;;17.70;99.90;;;;;;5053712;28;20197;-72
2022/07/27 07:25:26;;;;;;;20.02;18.45;;;18.00;99.90;;;;;;5049872;28;20071;-72
2022/07/27 07:27:54;;;;;;;20.73;19.10;;;18.30;99.90;;;;;;5037723;28;20041;-72
2022/07/27 07:30:22;;;;;;;20.63;18.95;;;18.10;99.90;;;;;;5053065;28;20070;-71
2022/07/27 07:32:49;;;;;;;21.33;19.60;;;17.80;99.90;;;;;;5053584;28;20048;-73
2022/07/27 07:35:16;;;;;;;19.45;18.08;;;17.40;99.90;;;;;;5054839;28;20056;-73
2022/07/27 07:37:43;;;;;;;21.92;20.20;;;17.50;99.90;;;;;;5041247;28;20226;-73
2022/07/27 07:40:10;;;;;;;20.77;19.35;;;17.60;99.90;;;;;;5055025;28;20044;-74
2022/07/27 07:43:00;;;;;;;19.90;18.40;;;18.10;99.90;;;;;;5059504;28;20314;-72
2022/07/27 07:45:28;;;;;;;20.38;18.80;;;18.70;99.90;;;;;;5044131;28;20107;-73
2022/07/27 07:47:55;;;;;;;20.98;18.95;;;18.70;99.90;;;;;;5052034;28;20037;-72
2022/07/27 07:50:23;;;;;;;20.40;18.85;;;18.40;99.90;;;;;;5046882;28;20044;-72
2022/07/27 07:52:51;;;;;;;20.73;19.23;;;17.80;99.90;;;;;;5052500;28;20048;-73
2022/07/27 07:55:24;;;;;;;20.80;18.85;;;17.30;99.90;;;;;;5051942;28;20140;-73
2022/07/27 07:57:52;;;;;;;20.92;19.42;;;17.30;99.90;;;;;;5052120;28;20125;-73
2022/07/27 08:00:20;;;;;;;19.65;18.40;;;17.20;99.90;;;;;;5046089;28;20063;-74
2022/07/27 08:02:49;;;;;;;19.88;18.52;;;17.50;99.90;;;;;;5048620;28;20291;-73
2022/07/27 08:05:17;;;;;;;21.15;19.45;;;17.80;99.90;;;;;;5054289;28;20494;-72
2022/07/27 08:07:44;;;;;;;20.13;18.73;;;18.00;99.90;;;;;;5057269;28;20051;-73
2022/07/27 08:10:13;;;;;;;20.95;19.38;;;17.70;99.90;;;;;;5053726;28;20044;-73
2022/07/27 08:12:43;;;;;;;21.27;19.77;;;17.60;99.90;;;;;;5038921;28;20055;-70
2022/07/27 08:15:12;;;;;;;21.42;19.90;;;17.50;99.90;;;;;;5047093;28;20064;-72
2022/07/27 08:17:39;;;;;;;21.15;19.75;;;17.40;99.90;;;;;;5064262;28;20117;-73
2022/07/27 08:20:06;;;;;;;20.95;19.60;;;17.10;99.90;;;;;;5052149;28;20094;-70
2022/07/27 08:22:34;;;;;;;21.42;19.73;;;17.00;99.90;;;;;;5047442;28;21415;-73
2022/07/27 08:25:02;;;;;;;21.10;19.60;;;16.80;99.90;;;;;;5046378;28;20129;-71
2022/07/27 08:27:28;;;;;;;21.77;20.48;;;16.60;99.90;;;;;;5056440;28;20072;-73
2022/07/27 08:30:07;;;;;;;22.20;20.77;;;16.90;99.90;;;;;;5050808;28;20047;-74
2022/07/27 08:32:52;;;;;;;20.70;19.40;;;17.40;99.90;;;;;;5047999;28;20041;-73
2022/07/27 08:35:20;;;;;;;21.23;19.65;;;18.10;99.90;;;;;;5049788;28;20048;-74
2022/07/27 08:37:47;;;;;;;20.75;19.42;;;18.40;99.90;;;;;;5051545;28;20048;-73
2022/07/27 08:40:14;;;;;;;20.70;19.10;;;18.80;99.90;;;;;;5050416;28;20040;-71
2022/07/27 08:43:02;;;;;;;22.20;20.48;;;18.80;99.90;;;;;;5044215;28;20132;-71
2022/07/27 08:45:31;;;;;;;22.92;21.20;;;19.20;99.90;;;;;;5048214;28;20065;-73
2022/07/27 08:47:58;;;;;;;20.33;18.98;;;18.90;99.90;;;;;;5051381;28;20063;-75
2022/07/27 08:50:29;;;;;;;20.60;19.30;;;19.10;99.90;;;;;;5049685;28;20054;-72
2022/07/27 08:53:08;;;;;;;20.67;19.38;;;19.20;99.90;;;;;;5050302;28;20083;-74
2022/07/27 08:55:37;;;;;;;21.08;19.70;;;18.80;99.90;;;;;;5047743;28;20064;-75
2022/07/27 08:58:05;;;;;;;21.95;20.23;;;18.40;99.90;;;;;;5049434;28;20495;-75
2022/07/27 09:00:33;;;;;;;21.52;20.02;;;18.20;99.90;;;;;;5042088;28;20079;-71
2022/07/27 09:03:01;;;;;;;20.95;19.55;;;18.10;99.90;;;;;;5044299;28;20044;-73
2022/07/27 09:05:29;;;;;;;21.58;20.05;;;17.90;99.90;;;;;;5050862;28;20568;-73
2022/07/27 09:08:20;;;;;;;21.20;19.58;;;17.70;99.90;;;;;;5053769;28;20048;-74
2022/07/27 09:10:46;;;;;;;20.90;19.40;;;17.70;99.90;;;;;;5050186;28;20036;-73
2022/07/27 09:13:26;;;;;;;21.02;19.50;;;17.60;99.90;;;;;;5055233;28;20057;-72
2022/07/27 09:15:58;;;;;;;22.15;20.10;;;17.60;99.90;;;;;;5050528;28;20063;-73
2022/07/27 09:18:45;;;;;;;20.80;19.25;;;17.60;99.90;;;;;;5051668;28;20045;-72
2022/07/27 09:21:18;;;;;;;22.40;20.83;;;17.70;99.90;;;;;;5052657;28;20044;-72
2022/07/27 09:24:12;;;;;;;22.98;21.30;;;17.60;99.90;;;;;;5048688;28;20044;-73
2022/07/27 09:27:03;;;;;;;22.42;20.98;;;18.20;99.90;;;;;;5053452;28;20118;-73
2022/07/27 09:29:34;;;;;;;21.55;19.90;;;19.10;99.90;;;;;;5051873;28;20055;-72
2022/07/27 09:32:13;;;;;;;22.85;21.17;;;19.30;99.90;;;;;;5047558;28;20789;-73
2022/07/27 09:34:41;;;;;;;22.05;20.50;;;19.30;99.90;;;;;;5046030;28;20047;-74
2022/07/27 09:37:11;;;;;;;22.08;20.17;;;19.20;99.90;;;;;;5056807;28;20131;-73
2022/07/27 09:39:38;;;;;;;20.65;19.35;;;19.20;99.90;;;;;;5051441;28;20457;-71
2022/07/27 09:42:05;;;;;;;20.80;19.30;;;18.90;99.90;;;;;;5050646;28;20040;-73
2022/07/27 09:44:38;;;;;;;21.02;19.52;;;18.40;99.90;;;;;;5049301;28;20286;-74
2022/07/27 09:47:27;;;;;;;21.80;20.05;;;18.20;99.90;;;;;;5054089;28;20052;-75
2022/07/27 09:49:56;;;;;;;21.27;19.70;;;17.90;99.90;;;;;;5051744;28;20040;-74
2022/07/27 09:52:28;;;;;;;20.63;18.95;;;17.70;99.90;;;;;;5049570;28;20044;-75
2022/07/27 09:55:03;;;;;;;22.00;20.60;;;18.00;99.90;;;;;;5061102;28;20069;-74
2022/07/27 09:57:29;;;;;;;;;;;18.10;99.90;;;;;;5041959;28;20057;-73
2022/07/27 10:00:12;;;;;;;21.08;19.65;;;18.20;99.90;;;;;;5051060;28;20308;-74
2022/07/27 10:02:41;;;;;;;22.85;21.30;;;18.60;99.90;;;;;;5048444;28;20050;-72
2022/07/27 10:05:09;;;;;;;22.13;20.52;;;18.90;99.90;;;;;;5056302;28;20544;-74
2022/07/27 10:07:37;;;;;;;20.38;18.70;;;19.30;99.90;;;;;;5064856;28;20185;-73
2022/07/27 10:10:05;;;;;;;21.00;19.50;;;19.70;99.90;;;;;;5041046;28;20099;-74
2022/07/27 10:12:31;;;;;;;21.55;19.92;;;19.70;99.90;;;;;;5050233;28;20286;-73
2022/07/27 10:14:58;;;;;;;21.63;19.70;;;19.50;99.90;;;;;;5053662;28;20102;-74
2022/07/27 10:17:26;;;;;;;20.88;19.48;;;19.50;99.90;;;;;;5053460;28;20052;-74
2022/07/27 10:19:53;;;;;;;22.17;20.77;;;19.50;99.90;;;;;;5051910;28;20045;-73
2022/07/27 10:23:05;;;;;;;21.05;19.65;;;19.60;99.90;;;;;;5050093;28;20436;-73
2022/07/27 10:25:33;;;;;;;21.20;19.58;;;19.60;99.90;;;;;;5043554;28;20063;-74
2022/07/27 10:28:17;;;;;;;20.75;19.33;;;19.70;99.90;;;;;;5051368;28;20055;-73
2022/07/27 10:30:44;;;;;;;22.50;20.98;;;20.00;99.90;;;;;;5052223;28;20040;-73
2022/07/27 10:33:40;;;;;;;21.85;19.98;;;19.50;99.90;;;;;;5052737;28;20078;-75
2022/07/27 10:36:14;;;;;;;20.10;18.70;;;20.10;99.90;;;;;;5042643;28;20070;-73
2022/07/27 10:38:57;;;;;;;22.63;21.02;;;20.40;99.90;;;;;;5053296;28;20457;-73
2022/07/27 10:41:31;;;;;;;21.42;19.95;;;20.10;99.90;;;;;;5037032;28;20437;-74
2022/07/27 10:44:16;;;;;;;23.30;21.67;;;19.40;99.90;;;;;;5059534;28;20045;-74
2022/07/27 10:46:52;;;;;;;22.60;21.08;;;19.40;99.90;;;;;;5059380;28;20042;-74
2022/07/27 10:49:21;;;;;;;23.00;21.50;;;19.60;99.90;;;;;;5054118;28;20545;-74
2022/07/27 10:51:52;;;;;;;23.27;21.67;;;20.20;99.90;;;;;;5049294;28;20099;-74
2022/07/27 10:54:26;;;;;;;24.27;22.67;;;20.60;99.90;;;;;;5054530;28;20059;-74
2022/07/27 10:56:57;;;;;;;23.52;22.10;;;20.80;99.90;;;;;;5053757;28;20475;-74
2022/07/27 10:59:40;;;;;;;23.02;21.42;;;21.10;99.90;;;;;;5052514;28;20044;-74
2022/07/27 11:02:41;;;;;;;22.83;21.13;;;21.20;99.90;;;;;;5049181;28;20040;-73
2022/07/27 11:05:10;;;;;;;22.30;20.52;;;21.00;99.90;;;;;;5045797;28;20265;-74
2022/07/27 11:07:57;;;;;;;22.23;20.42;;;20.20;99.90;;;;;;5051966;28;20144;-75
2022/07/27 11:10:46;;;;;;;22.20;20.55;;;19.00;99.90;;;;;;5051173;28;20060;-72
2022/07/27 11:13:14;;;;;;;22.52;20.83;;;18.80;99.90;;;;;;5055736;28;20509;-74
2022/07/27 11:15:56;;;;;;;21.67;19.92;;;18.70;99.90;;;;;;5050750;28;20464;-74
2022/07/27 11:18:50;;;;;;;22.23;20.63;;;18.80;99.90;;;;;;5053494;28;20056;-75
2022/07/27 11:21:24;;;;;;;22.10;20.50;;;18.80;99.90;;;;;;5052878;28;20070;-74
2022/07/27 11:23:58;;;;;;;22.17;20.58;;;18.80;99.90;;;;;;5033163;28;20048;-74
2022/07/27 11:26:27;;;;;;;22.58;20.92;;;18.80;99.90;;;;;;5048057;28;20094;-74
2022/07/27 11:28:55;;;;;;;22.77;20.88;;;18.90;99.90;;;;;;5037168;28;20045;-72
2022/07/27 11:31:22;;;;;;;22.42;20.80;;;18.60;99.90;;;;;;5052289;28;20105;-74
2022/07/27 11:34:10;;;;;;;21.35;19.73;;;18.60;99.90;;;;;;5049272;28;20044;-72
2022/07/27 11:36:43;;;;;;;24.05;22.45;;;18.50;99.90;;;;;;5050276;28;20876;-75
2022/07/27 11:39:12;;;;;;;25.42;23.33;;;18.50;99.90;;;;;;5055300;28;20044;-74
2022/07/27 11:41:42;;;;;;;23.95;22.35;;;18.90;99.90;;;;;;5048995;28;20132;-74
2022/07/27 11:44:29;;;;;;;24.10;22.63;;;19.20;99.90;;;;;;5054891;28;20235;-74
2022/07/27 11:46:57;;;;;;;24.80;23.05;;;19.30;99.90;;;;;;5020680;28;20060;-75
2022/07/27 11:49:29;;;;;;;24.25;22.60;;;19.80;99.90;;;;;;5052149;28;20083;-74
2022/07/27 11:52:02;;;;;;;24.35;22.65;;;20.20;99.90;;;;;;5051865;28;20102;-74
2022/07/27 11:54:34;;;;;;;23.48;21.75;;;20.70;99.90;;;;;;5050717;28;20091;-74
2022/07/27 11:57:04;;;;;;;23.10;21.50;;;21.40;99.90;;;;;;5057765;28;20041;-74
2022/07/27 11:59:44;;;;;;;22.85;21.05;;;21.40;99.90;;;;;;5047297;28;20063;-74
2022/07/27 12:02:16;;;;;;;23.88;22.05;;;21.10;99.90;;;;;;5056060;28;20712;-74
2022/07/27 12:04:45;;;;;;;23.02;21.50;;;20.70;99.90;;;;;;5058781;28;20051;-75
2022/07/27 12:07:15;;;;;;;24.20;22.52;;;20.30;99.90;;;;;;5062402;28;20040;-75
2022/07/27 12:09:49;;;;;;;26.63;24.70;;;20.00;99.90;;;;;;5056736;28;20079;-72
2022/07/27 12:12:20;;;;;;;25.92;24.02;;;20.10;99.90;;;;;;5058380;28;20075;-73
2022/07/27 12:14:50;;;;;;;23.35;21.80;;;20.50;99.90;;;;;;5053063;28;20037;-74
2022/07/27 12:17:27;;;;;;;23.48;21.77;;;20.80;99.90;;;;;;5058031;28;20158;-72
2022/07/27 12:19:58;;;;;;;25.92;24.13;;;20.70;99.90;;;;;;5051904;28;20170;-74
2022/07/27 12:22:31;;;;;;;24.75;22.83;;;20.70;99.90;;;;;;5050521;28;20060;-73
2022/07/27 12:25:04;;;;;;;23.48;21.77;;;20.70;99.90;;;;;;5050227;28;20168;-74
2022/07/27 12:27:37;;;;;;;23.60;21.90;;;20.90;99.90;;;;;;5046381;28;20634;-74
2022/07/27 12:30:07;;;;;;;23.48;21.88;;;20.90;99.90;;;;;;5053664;28;20127;-74
2022/07/27 12:32:40;;;;;;;23.02;21.60;;;20.90;99.90;;;;;;5049107;28;20049;-73
2022/07/27 12:35:23;;;;;;;23.67;21.50;;;20.40;99.90;;;;;;5051253;28;20052;-72
2022/07/27 12:38:03;;;;;;;24.67;22.67;;;19.90;99.90;;;;;;5064091;28;20740;-73
2022/07/27 12:40:31;;;;;;;23.10;21.45;;;19.70;99.90;;;;;;5040562;28;20072;-72
2022/07/27 12:42:59;;;;;;;24.15;22.25;;;19.50;99.90;;;;;;5045001;28;20087;-72
2022/07/27 12:45:32;;;;;;;23.60;22.00;;;19.40;99.90;;;;;;5050574;28;20114;-73